Time,TemperatureF,DewpointF,PressureIn,WindDirection,WindDirectionDegrees,WindSpeedMPH,WindSpeedGustMPH,Humidity,HourlyPrecipIn,Conditions,Clouds,dailyrainin,SoftwareType,DateUTC
2013-04-10 00:02:00,37.8,28.9,29.99,NNE,32,0.0,0.0,70,0.00,,---,0.00,VWS V12.08,2013-04-10 05:02:00,
2013-04-10 00:07:00,37.6,29.4,29.99,North,11,0.0,0.0,72,0.00,,---,0.00,VWS V12.08,2013-04-10 05:07:00,
2013-04-10 00:12:00,37.6,30.1,29.99,NE,37,0.0,0.0,74,0.00,,---,0.00,VWS V12.08,2013-04-10 05:12:00,
2013-04-10 00:17:00,37.4,30.2,29.99,NE,38,0.0,0.0,75,0.00,,---,0.00,VWS V12.08,2013-04-10 05:17:00,
2013-04-10 00:22:00,37.4,30.9,29.99,NNE,30,0.0,0.0,77,0.00,,---,0.00,VWS V12.08,2013-04-10 05:22:00,
2013-04-10 00:27:00,37.2,31.3,29.99,NNE,31,0.0,0.0,79,0.00,,---,0.00,VWS V12.08,2013-04-10 05:27:00,
2013-04-10 00:33:00,37.2,31.6,29.99,NNE,31,0.0,0.0,80,0.00,,---,0.00,VWS V12.08,2013-04-10 05:33:00,
2013-04-10 00:38:00,37.0,31.8,30.05,North,4,0.0,0.0,81,0.00,,---,0.00,VWS V12.08,2013-04-10 05:38:00,
2013-04-10 00:43:00,37.0,32.1,30.05,North,8,0.0,0.0,82,0.00,,---,0.00,VWS V12.08,2013-04-10 05:43:00,
2013-04-10 00:48:00,36.9,31.9,30.05,NNE,25,0.0,0.0,82,0.00,,---,0.00,VWS V12.08,2013-04-10 05:48:00,
2013-04-10 00:53:00,36.7,31.7,30.02,NNE,21,0.0,0.0,82,0.00,,---,0.00,VWS V12.08,2013-04-10 05:53:00,
2013-04-10 00:58:00,36.3,31.4,30.02,North,11,0.0,0.0,82,0.00,,---,0.00,VWS V12.08,2013-04-10 05:58:00,
2013-04-10 01:03:00,36.3,31.7,30.02,North,350,0.0,0.0,83,0.00,,---,0.00,VWS V12.08,2013-04-10 06:03:00,
2013-04-10 01:08:00,36.0,31.3,30.02,NNE,28,0.0,0.0,83,0.00,,---,0.00,VWS V12.08,2013-04-10 06:08:00,
2013-04-10 01:13:00,35.8,31.1,30.02,North,2,0.0,0.0,83,0.00,,---,0.00,VWS V12.08,2013-04-10 06:13:00,
2013-04-10 01:18:00,35.2,30.3,30.02,NNE,16,0.0,0.0,82,0.00,,---,0.00,VWS V12.08,2013-04-10 06:18:00,
2013-04-10 01:23:00,34.9,30.0,30.02,North,9,0.0,0.0,82,0.00,,---,0.00,VWS V12.08,2013-04-10 06:23:00,
2013-04-10 01:28:00,34.5,29.6,30.02,NE,35,0.0,0.0,82,0.00,,---,0.00,VWS V12.08,2013-04-10 06:28:00,
2013-04-10 01:33:00,34.5,29.6,30.02,North,11,0.0,0.0,82,0.00,,---,0.00,VWS V12.08,2013-04-10 06:33:00,
2013-04-10 01:38:00,34.3,29.4,29.99,NNE,22,0.0,0.0,82,0.00,,---,0.00,VWS V12.08,2013-04-10 06:38:00,
2013-04-10 01:43:00,34.3,28.8,29.99,NNE,25,0.0,0.0,80,0.00,,---,0.00,VWS V12.08,2013-04-10 06:43:00,
2013-04-10 01:48:00,34.3,28.2,29.99,NNE,22,0.0,0.0,78,0.00,,---,0.00,VWS V12.08,2013-04-10 06:48:00,
2013-04-10 01:53:00,34.2,27.4,29.99,North,9,0.0,0.0,76,0.00,,---,0.00,VWS V12.08,2013-04-10 06:53:00,
2013-04-10 01:58:00,34.2,27.4,29.99,NNE,19,0.0,0.0,76,0.00,,---,0.00,VWS V12.08,2013-04-10 06:58:00,
2013-04-10 02:03:00,34.2,27.7,29.99,NNE,18,0.0,0.0,77,0.00,,---,0.00,VWS V12.08,2013-04-10 07:03:00,
2013-04-10 02:08:00,34.0,27.2,29.99,NNE,28,0.0,0.0,76,0.00,,---,0.00,VWS V12.08,2013-04-10 07:08:00,
2013-04-10 02:13:00,34.0,26.9,29.99,North,10,0.0,0.0,75,0.00,,---,0.00,VWS V12.08,2013-04-10 07:13:00,
2013-04-10 02:18:00,33.8,26.4,29.99,NNE,26,0.0,0.0,74,0.00,,---,0.00,VWS V12.08,2013-04-10 07:18:00,
2013-04-10 02:23:00,33.8,26.4,29.99,North,10,0.0,0.0,74,0.00,,---,0.00,VWS V12.08,2013-04-10 07:23:00,
2013-04-10 02:28:00,34.0,26.2,29.99,NNE,24,0.0,0.0,73,0.00,,---,0.00,VWS V12.08,2013-04-10 07:28:00,
2013-04-10 02:33:00,33.8,26.4,29.99,North,11,0.0,0.0,74,0.00,,---,0.00,VWS V12.08,2013-04-10 07:33:00,
2013-04-10 02:38:00,33.8,27.0,29.99,NE,47,0.0,0.0,76,0.00,,---,0.00,VWS V12.08,2013-04-10 07:38:00,
2013-04-10 02:43:00,33.8,27.0,29.99,NNE,15,0.0,0.0,76,0.00,,---,0.00,VWS V12.08,2013-04-10 07:43:00,
2013-04-10 02:48:00,34.0,27.5,29.99,North,11,0.0,0.0,77,0.00,,---,0.00,VWS V12.08,2013-04-10 07:48:00,
2013-04-10 02:53:00,34.0,28.2,30.02,NNE,32,0.0,0.0,79,0.00,,---,0.00,VWS V12.08,2013-04-10 07:53:00,
2013-04-10 02:58:00,33.8,28.3,30.02,NNE,32,0.0,0.0,80,0.00,,---,0.00,VWS V12.08,2013-04-10 07:58:00,
2013-04-10 03:03:00,33.8,28.9,30.02,NNE,12,0.0,0.0,82,0.00,,---,0.00,VWS V12.08,2013-04-10 08:03:00,
2013-04-10 03:08:00,33.8,29.2,29.96,NNE,33,0.0,0.0,83,0.00,,---,0.00,VWS V12.08,2013-04-10 08:08:00,
2013-04-10 03:13:00,33.6,29.0,29.96,NE,34,0.0,0.0,83,0.00,,---,0.00,VWS V12.08,2013-04-10 08:13:00,
2013-04-10 03:18:00,33.6,28.1,29.96,NE,37,0.0,0.0,80,0.00,,---,0.00,VWS V12.08,2013-04-10 08:18:00,
2013-04-10 03:23:00,33.6,27.8,29.96,NE,37,0.0,0.0,79,0.00,,---,0.00,VWS V12.08,2013-04-10 08:23:00,
2013-04-10 03:28:00,33.6,27.8,29.96,NE,37,0.0,0.0,79,0.00,,---,0.00,VWS V12.08,2013-04-10 08:28:00,
2013-04-10 03:33:00,33.6,27.8,29.96,NE,37,0.0,0.0,79,0.00,,---,0.00,VWS V12.08,2013-04-10 08:33:00,
2013-04-10 03:38:00,33.6,27.8,29.96,NE,37,0.0,0.0,79,0.00,,---,0.00,VWS V12.08,2013-04-10 08:38:00,
2013-04-10 03:43:00,33.6,27.8,29.96,NE,37,0.0,0.0,79,0.00,,---,0.00,VWS V12.08,2013-04-10 08:43:00,
2013-04-10 03:48:00,33.6,27.8,29.96,NE,37,0.0,0.0,79,0.00,,---,0.00,VWS V12.08,2013-04-10 08:48:00,
2013-04-10 03:53:00,33.6,28.1,29.96,NE,37,0.0,0.0,80,0.00,,---,0.00,VWS V12.08,2013-04-10 08:53:00,
2013-04-10 03:58:00,33.6,28.7,29.96,NE,37,0.0,0.0,82,0.00,,---,0.00,VWS V12.08,2013-04-10 08:58:00,
2013-04-10 04:03:00,33.8,29.2,29.96,NE,36,0.0,0.0,83,0.00,,---,0.00,VWS V12.08,2013-04-10 09:03:00,
2013-04-10 04:08:00,34.0,29.7,30.08,NE,37,0.0,0.0,84,0.00,,---,0.00,VWS V12.08,2013-04-10 09:08:00,
2013-04-10 04:13:00,33.8,29.5,30.08,NE,36,0.0,0.0,84,0.00,,---,0.00,VWS V12.08,2013-04-10 09:13:00,
2013-04-10 04:18:00,33.8,29.8,30.08,NE,36,0.0,0.0,85,0.00,,---,0.00,VWS V12.08,2013-04-10 09:18:00,
2013-04-10 04:23:00,33.8,29.8,30.02,NE,37,0.0,0.0,85,0.00,,---,0.00,VWS V12.08,2013-04-10 09:23:00,
2013-04-10 04:28:00,33.8,29.5,30.02,NE,36,0.0,0.0,84,0.00,,---,0.00,VWS V12.08,2013-04-10 09:28:00,
2013-04-10 04:33:00,33.8,29.5,30.02,NE,36,0.0,0.0,84,0.00,,---,0.00,VWS V12.08,2013-04-10 09:33:00,
2013-04-10 04:38:00,33.8,29.5,30.08,NE,37,0.0,0.0,84,0.00,,---,0.00,VWS V12.08,2013-04-10 09:38:00,
2013-04-10 04:43:00,33.6,29.0,30.08,NE,37,0.0,0.0,83,0.00,,---,0.00,VWS V12.08,2013-04-10 09:43:00,
2013-04-10 04:48:00,33.6,29.3,30.08,NE,37,0.0,0.0,84,0.00,,---,0.00,VWS V12.08,2013-04-10 09:48:00,
2013-04-10 04:53:00,33.6,29.3,29.99,NE,37,0.0,0.0,84,0.00,,---,0.00,VWS V12.08,2013-04-10 09:53:00,
2013-04-10 04:58:00,33.6,29.3,29.99,NE,37,0.0,0.0,84,0.00,,---,0.00,VWS V12.08,2013-04-10 09:58:00,
2013-04-10 05:03:00,33.8,29.5,29.99,NE,36,0.0,0.0,84,0.00,,---,0.00,VWS V12.08,2013-04-10 10:03:00,
2013-04-10 05:08:00,33.8,29.5,29.99,NE,37,0.0,0.0,84,0.00,,---,0.00,VWS V12.08,2013-04-10 10:08:00,
2013-04-10 05:13:00,33.8,29.5,29.99,NE,36,0.0,0.0,84,0.00,,---,0.00,VWS V12.08,2013-04-10 10:13:00,
2013-04-10 05:18:00,33.8,29.5,29.99,NE,37,0.0,0.0,84,0.00,,---,0.00,VWS V12.08,2013-04-10 10:18:00,
2013-04-10 05:23:00,33.8,29.5,29.93,NE,36,0.0,0.0,84,0.00,,---,0.00,VWS V12.08,2013-04-10 10:23:00,
2013-04-10 05:28:00,33.8,29.5,29.93,NE,37,0.0,0.0,84,0.00,,---,0.00,VWS V12.08,2013-04-10 10:28:00,
2013-04-10 05:33:00,34.0,29.7,29.93,NE,36,0.0,0.0,84,0.00,,---,0.00,VWS V12.08,2013-04-10 10:33:00,
2013-04-10 05:38:00,34.2,30.1,30.02,NE,36,0.0,0.0,85,0.00,,---,0.00,VWS V12.08,2013-04-10 10:38:00,
2013-04-10 05:43:00,34.2,29.8,30.02,NE,36,0.0,0.0,84,0.00,,---,0.00,VWS V12.08,2013-04-10 10:43:00,
2013-04-10 05:49:00,34.2,29.5,30.02,NE,37,0.0,0.0,83,0.00,,---,0.00,VWS V12.08,2013-04-10 10:49:00,
2013-04-10 05:54:00,34.2,29.5,30.02,NE,37,0.0,0.0,83,0.00,,---,0.00,VWS V12.08,2013-04-10 10:54:00,
2013-04-10 05:59:00,34.2,29.2,30.02,NE,37,0.0,0.0,82,0.00,,---,0.00,VWS V12.08,2013-04-10 10:59:00,
2013-04-10 06:03:00,34.2,29.0,30.02,NE,36,0.0,0.0,81,0.00,,---,0.00,VWS V12.08,2013-04-10 11:03:00,
2013-04-10 06:08:00,34.2,29.0,29.96,NE,37,0.0,0.0,81,0.00,,---,0.00,VWS V12.08,2013-04-10 11:08:00,
2013-04-10 06:13:00,34.2,29.2,29.96,NE,37,0.0,0.0,82,0.00,,---,0.00,VWS V12.08,2013-04-10 11:13:00,
2013-04-10 06:18:00,34.3,29.1,29.96,NE,36,0.0,0.0,81,0.00,,---,0.00,VWS V12.08,2013-04-10 11:18:00,
2013-04-10 06:23:00,34.2,29.0,29.99,NE,36,0.0,0.0,81,0.00,,---,0.00,VWS V12.08,2013-04-10 11:23:00,
2013-04-10 06:29:00,34.2,29.0,29.99,NE,37,0.0,0.0,81,0.00,,---,0.00,VWS V12.08,2013-04-10 11:29:00,
2013-04-10 06:34:00,34.3,29.4,29.99,NE,37,0.0,0.0,82,0.00,,---,0.00,VWS V12.08,2013-04-10 11:34:00,
2013-04-10 06:39:00,34.2,29.2,29.96,NE,37,0.0,0.0,82,0.00,,---,0.00,VWS V12.08,2013-04-10 11:39:00,
2013-04-10 06:44:00,34.2,29.2,29.96,NE,36,0.0,0.0,82,0.00,,---,0.00,VWS V12.08,2013-04-10 11:44:00,
2013-04-10 06:49:00,34.2,29.5,29.96,NE,36,0.0,0.0,83,0.00,,---,0.00,VWS V12.08,2013-04-10 11:49:00,
2013-04-10 06:54:00,34.2,29.5,29.93,NE,37,0.0,0.0,83,0.00,,---,0.00,VWS V12.08,2013-04-10 11:54:00,
2013-04-10 06:59:00,34.3,29.7,29.93,NE,37,0.0,0.0,83,0.00,,---,0.00,VWS V12.08,2013-04-10 11:59:00,
2013-04-10 07:04:00,34.3,30.0,29.93,NE,37,0.0,0.0,84,0.00,,---,0.00,VWS V12.08,2013-04-10 12:04:00,
2013-04-10 07:09:00,34.3,30.0,29.99,NE,37,0.0,0.0,84,0.00,,---,0.00,VWS V12.08,2013-04-10 12:09:00,
2013-04-10 07:14:00,34.3,30.0,29.99,NE,37,0.0,0.0,84,0.00,,---,0.00,VWS V12.08,2013-04-10 12:14:00,
2013-04-10 07:19:00,34.3,29.7,29.99,NE,36,0.0,0.0,83,0.00,,---,0.00,VWS V12.08,2013-04-10 12:19:00,
2013-04-10 07:24:00,34.3,29.4,29.99,NE,37,0.0,0.0,82,0.00,,---,0.00,VWS V12.08,2013-04-10 12:24:00,
2013-04-10 07:29:00,34.5,29.3,29.99,NE,37,0.0,0.0,81,0.00,,---,0.00,VWS V12.08,2013-04-10 12:29:00,
2013-04-10 07:34:00,34.5,29.3,29.99,NE,37,0.0,0.0,81,0.00,,---,0.00,VWS V12.08,2013-04-10 12:34:00,
2013-04-10 07:39:00,34.5,29.0,30.02,NE,37,0.0,0.0,80,0.00,,---,0.00,VWS V12.08,2013-04-10 12:39:00,
2013-04-10 07:44:00,34.5,29.0,30.02,NE,37,0.0,0.0,80,0.00,,---,0.00,VWS V12.08,2013-04-10 12:44:00,
2013-04-10 07:49:00,34.5,29.3,30.02,NE,37,0.0,0.0,81,0.00,,---,0.00,VWS V12.08,2013-04-10 12:49:00,
2013-04-10 07:54:00,34.5,29.3,29.99,NE,36,0.0,0.0,81,0.00,,---,0.00,VWS V12.08,2013-04-10 12:54:00,
2013-04-10 07:59:00,34.5,29.3,29.99,NE,36,0.0,0.0,81,0.00,,---,0.00,VWS V12.08,2013-04-10 12:59:00,
2013-04-10 08:04:00,34.7,29.8,29.99,NE,36,0.0,0.0,82,0.00,,---,0.00,VWS V12.08,2013-04-10 13:04:00,
2013-04-10 08:09:00,34.7,29.8,29.99,NE,37,0.0,0.0,82,0.00,,---,0.00,VWS V12.08,2013-04-10 13:09:00,
2013-04-10 08:14:00,34.7,30.1,29.99,NE,37,0.0,0.0,83,0.00,,---,0.00,VWS V12.08,2013-04-10 13:14:00,
2013-04-10 08:19:00,34.7,30.1,29.99,NE,36,0.0,0.0,83,0.00,,---,0.00,VWS V12.08,2013-04-10 13:19:00,
2013-04-10 08:24:00,34.7,30.4,29.90,NE,36,0.0,0.0,84,0.00,,---,0.00,VWS V12.08,2013-04-10 13:24:00,
2013-04-10 08:29:00,34.7,30.4,29.90,NE,36,0.0,0.0,84,0.00,,---,0.00,VWS V12.08,2013-04-10 13:29:00,
2013-04-10 08:34:00,34.9,30.8,29.90,NE,36,0.0,0.0,85,0.00,,---,0.00,VWS V12.08,2013-04-10 13:34:00,
2013-04-10 08:39:00,34.9,30.8,29.90,NE,36,0.0,0.0,85,0.00,,---,0.00,VWS V12.08,2013-04-10 13:39:00,
2013-04-10 08:44:00,34.9,31.1,29.90,NE,36,0.0,0.0,86,0.00,,---,0.00,VWS V12.08,2013-04-10 13:44:00,
2013-04-10 08:49:00,35.1,31.3,29.90,NE,36,0.0,0.0,86,0.00,,---,0.00,VWS V12.08,2013-04-10 13:49:00,
2013-04-10 08:54:00,35.2,31.5,29.90,NE,37,0.0,0.0,86,0.00,,---,0.00,VWS V12.08,2013-04-10 13:54:00,
2013-04-10 08:59:00,35.4,31.7,29.90,NE,36,0.0,0.0,86,0.00,,---,0.00,VWS V12.08,2013-04-10 13:59:00,
2013-04-10 09:04:00,35.6,31.8,29.90,NE,36,0.0,0.0,86,0.00,,---,0.00,VWS V12.08,2013-04-10 14:04:00,
2013-04-10 09:09:00,35.8,32.0,29.96,NE,36,0.0,0.0,86,0.00,,---,0.00,VWS V12.08,2013-04-10 14:09:00,
2013-04-10 09:14:00,36.0,31.9,29.96,NE,36,0.0,0.0,85,0.00,,---,0.00,VWS V12.08,2013-04-10 14:14:00,
2013-04-10 09:19:00,36.0,31.6,29.96,NE,36,0.0,0.0,84,0.00,,---,0.00,VWS V12.08,2013-04-10 14:19:00,
2013-04-10 09:24:00,36.0,31.6,29.96,NE,36,0.0,0.0,84,0.00,,---,0.00,VWS V12.08,2013-04-10 14:24:00,
2013-04-10 09:29:00,36.0,31.6,29.96,NE,36,0.0,0.0,84,0.00,,---,0.00,VWS V12.08,2013-04-10 14:29:00,
2013-04-10 09:34:00,36.1,31.5,29.96,NE,35,0.0,0.0,83,0.00,,---,0.00,VWS V12.08,2013-04-10 14:34:00,
2013-04-10 09:39:00,36.3,31.7,29.96,NNE,31,0.0,0.0,83,0.00,,---,0.00,VWS V12.08,2013-04-10 14:39:00,
2013-04-10 09:44:00,36.3,31.7,29.96,North,8,0.0,0.0,83,0.00,,---,0.00,VWS V12.08,2013-04-10 14:44:00,
2013-04-10 09:49:00,36.5,31.8,29.96,North,349,0.0,0.0,83,0.00,,---,0.00,VWS V12.08,2013-04-10 14:49:00,
2013-04-10 09:54:00,36.3,31.4,30.02,NNE,14,0.0,0.0,82,0.00,,---,0.00,VWS V12.08,2013-04-10 14:54:00,
2013-04-10 09:59:00,36.1,31.2,30.02,NNE,18,0.0,0.0,82,0.00,,---,0.00,VWS V12.08,2013-04-10 14:59:00,
2013-04-10 10:04:00,36.3,31.4,30.02,North,4,0.0,0.0,82,0.00,,---,0.00,VWS V12.08,2013-04-10 15:04:00,
2013-04-10 10:09:00,36.3,31.4,30.02,NNW,342,0.0,0.0,82,0.00,,---,0.00,VWS V12.08,2013-04-10 15:09:00,
2013-04-10 10:14:00,36.1,31.2,30.02,North,357,0.0,0.0,82,0.00,,---,0.00,VWS V12.08,2013-04-10 15:14:00,
2013-04-10 10:19:00,35.8,30.8,30.02,NNE,27,0.0,0.0,82,0.00,,---,0.00,VWS V12.08,2013-04-10 15:19:00,
2013-04-10 10:24:00,35.8,30.8,30.02,NE,36,0.0,0.0,82,0.00,,---,0.00,VWS V12.08,2013-04-10 15:24:00,
2013-04-10 10:29:00,35.8,30.8,30.02,North,11,0.0,0.0,82,0.00,,---,0.00,VWS V12.08,2013-04-10 15:29:00,
2013-04-10 10:34:00,35.8,31.1,30.02,NNE,29,0.0,0.0,83,0.00,,---,0.00,VWS V12.08,2013-04-10 15:34:00,
2013-04-10 10:39:00,36.0,31.3,30.02,NNE,18,0.0,0.0,83,0.00,,---,0.00,VWS V12.08,2013-04-10 15:39:00,
2013-04-10 10:44:00,35.8,30.8,30.02,North,357,0.0,0.0,82,0.00,,---,0.00,VWS V12.08,2013-04-10 15:44:00,
2013-04-10 10:49:00,35.8,30.8,30.02,NNE,28,0.0,0.0,82,0.00,,---,0.00,VWS V12.08,2013-04-10 15:49:00,
2013-04-10 10:55:00,36.0,30.7,30.02,North,9,0.0,0.0,81,0.00,,---,0.00,VWS V12.08,2013-04-10 15:55:00,
2013-04-10 11:00:00,36.0,30.7,30.02,NNE,27,0.0,0.0,81,0.00,,---,0.00,VWS V12.08,2013-04-10 16:00:00,
2013-04-10 11:05:00,36.0,30.7,30.02,NE,42,0.0,0.0,81,0.00,,---,0.00,VWS V12.08,2013-04-10 16:05:00,
2013-04-10 11:10:00,36.0,30.7,30.05,NE,37,0.0,0.0,81,0.00,,---,0.00,VWS V12.08,2013-04-10 16:10:00,
2013-04-10 11:15:00,36.0,30.7,30.05,NE,41,0.0,0.0,81,0.00,,---,0.00,VWS V12.08,2013-04-10 16:15:00,
2013-04-10 11:20:00,36.0,31.0,30.05,NNE,32,0.0,0.0,82,0.00,,---,0.00,VWS V12.08,2013-04-10 16:20:00,
2013-04-10 11:25:00,36.1,31.2,30.05,NNE,20,0.0,0.0,82,0.00,,---,0.00,VWS V12.08,2013-04-10 16:25:00,
2013-04-10 11:30:00,36.0,31.0,30.05,NNE,22,0.0,0.0,82,0.00,,---,0.00,VWS V12.08,2013-04-10 16:30:00,
2013-04-10 11:35:00,35.8,30.8,30.05,NNE,28,0.0,0.0,82,0.00,,---,0.00,VWS V12.08,2013-04-10 16:35:00,
2013-04-10 11:40:00,35.8,31.1,30.02,NE,42,0.0,0.0,83,0.00,,---,0.00,VWS V12.08,2013-04-10 16:40:00,
2013-04-10 11:45:00,35.8,31.4,30.02,NNE,33,0.0,0.0,84,0.00,,---,0.00,VWS V12.08,2013-04-10 16:45:00,
2013-04-10 11:50:00,35.8,31.7,30.02,North,10,0.0,0.0,85,0.00,,---,0.00,VWS V12.08,2013-04-10 16:50:00,
2013-04-10 11:55:00,35.8,32.0,29.99,NE,37,0.0,0.0,86,0.00,,---,0.00,VWS V12.08,2013-04-10 16:55:00,
2013-04-10 12:00:00,35.8,32.3,29.99,NNE,23,0.0,0.0,87,0.00,,---,0.00,VWS V12.08,2013-04-10 17:00:00,
2013-04-10 12:05:00,36.0,33.0,29.99,North,2,0.0,0.0,89,0.00,,---,0.00,VWS V12.08,2013-04-10 17:05:00,
2013-04-10 12:10:00,36.1,33.2,29.99,North,5,0.0,0.0,89,0.00,,---,0.00,VWS V12.08,2013-04-10 17:10:00,
2013-04-10 12:15:00,36.1,33.2,29.99,NNE,31,0.0,0.0,89,0.00,,---,0.00,VWS V12.08,2013-04-10 17:15:00,
2013-04-10 12:20:00,36.1,33.2,29.99,NNE,13,0.0,0.0,89,0.00,,---,0.00,VWS V12.08,2013-04-10 17:20:00,
2013-04-10 12:25:00,36.0,33.0,29.96,NNE,16,0.0,0.0,89,0.00,,---,0.00,VWS V12.08,2013-04-10 17:25:00,
2013-04-10 12:30:00,36.0,32.8,29.96,NNE,16,0.0,0.0,88,0.00,,---,0.00,VWS V12.08,2013-04-10 17:30:00,
2013-04-10 12:35:00,36.3,33.1,29.96,NNE,21,0.0,0.0,88,0.00,,---,0.00,VWS V12.08,2013-04-10 17:35:00,
2013-04-10 12:40:00,36.5,33.3,29.99,NNE,17,0.0,0.0,88,0.00,,---,0.00,VWS V12.08,2013-04-10 17:40:00,
2013-04-10 12:45:00,36.7,32.9,29.99,North,10,0.0,0.0,86,0.00,,---,0.00,VWS V12.08,2013-04-10 17:45:00,
2013-04-10 12:50:00,36.9,32.8,29.99,North,8,0.0,0.0,85,0.00,,---,0.00,VWS V12.08,2013-04-10 17:50:00,
2013-04-10 12:55:00,36.7,31.7,29.96,NNE,21,0.0,0.0,82,0.00,,---,0.00,VWS V12.08,2013-04-10 17:55:00,
2013-04-10 13:00:00,36.7,31.4,29.96,NNE,15,0.0,0.0,81,0.00,,---,0.00,VWS V12.08,2013-04-10 18:00:00,
2013-04-10 13:05:00,36.5,30.6,29.96,NNE,23,0.0,0.0,79,0.00,,---,0.00,VWS V12.08,2013-04-10 18:05:00,
2013-04-10 13:10:00,36.9,31.6,29.99,NNE,27,0.0,0.0,81,0.00,,---,0.00,VWS V12.08,2013-04-10 18:10:00,
2013-04-10 13:15:00,36.9,31.6,29.99,North,11,0.0,0.0,81,0.00,,---,0.00,VWS V12.08,2013-04-10 18:15:00,
2013-04-10 13:20:00,36.9,31.3,29.99,NNE,26,0.0,0.0,80,0.00,,---,0.00,VWS V12.08,2013-04-10 18:20:00,
2013-04-10 13:25:00,36.9,31.0,29.99,NNE,24,0.0,0.0,79,0.00,,---,0.00,VWS V12.08,2013-04-10 18:25:00,
2013-04-10 13:30:00,37.0,31.1,29.99,NNE,31,0.0,0.0,79,0.00,,---,0.00,VWS V12.08,2013-04-10 18:30:00,
2013-04-10 13:35:00,37.0,30.5,29.99,NNE,15,0.0,0.0,77,0.00,,---,0.00,VWS V12.08,2013-04-10 18:35:00,
2013-04-10 13:40:00,37.0,29.9,30.02,NE,34,0.0,0.0,75,0.00,,---,0.00,VWS V12.08,2013-04-10 18:40:00,
2013-04-10 13:45:00,37.4,30.2,30.02,NNE,31,0.0,0.0,75,0.00,,---,0.00,VWS V12.08,2013-04-10 18:45:00,
2013-04-10 13:50:00,37.4,29.9,30.02,NNE,30,0.0,0.0,74,0.00,,---,0.00,VWS V12.08,2013-04-10 18:50:00,
2013-04-10 13:55:00,37.4,29.9,30.02,NNE,25,0.0,0.0,74,0.00,,---,0.00,VWS V12.08,2013-04-10 18:55:00,
2013-04-10 14:00:00,37.4,29.9,30.02,NE,36,0.0,0.0,74,0.00,,---,0.00,VWS V12.08,2013-04-10 19:00:00,
2013-04-10 14:05:00,37.6,31.0,30.02,North,9,0.0,0.0,77,0.00,,---,0.00,VWS V12.08,2013-04-10 19:05:00,
2013-04-10 14:10:00,37.4,30.5,30.02,NE,38,0.0,0.0,76,0.00,,---,0.00,VWS V12.08,2013-04-10 19:10:00,
2013-04-10 14:15:00,37.4,30.2,30.02,NNE,20,0.0,0.0,75,0.00,,---,0.00,VWS V12.08,2013-04-10 19:15:00,
2013-04-10 14:20:00,37.6,31.0,30.02,North,9,0.0,0.0,77,0.00,,---,0.00,VWS V12.08,2013-04-10 19:20:00,
2013-04-10 14:25:00,37.6,31.0,30.02,NE,34,0.0,0.0,77,0.00,,---,0.00,VWS V12.08,2013-04-10 19:25:00,
2013-04-10 14:30:00,37.6,31.0,30.02,NNE,21,0.0,0.0,77,0.00,,---,0.00,VWS V12.08,2013-04-10 19:30:00,
2013-04-10 14:35:00,37.4,31.5,30.02,NNE,18,0.0,0.0,79,0.00,,---,0.00,VWS V12.08,2013-04-10 19:35:00,
2013-04-10 14:40:00,37.4,31.8,30.05,NNE,29,0.0,0.0,80,0.00,,---,0.00,VWS V12.08,2013-04-10 19:40:00,
2013-04-10 14:45:00,37.4,32.1,30.05,North,0,0.0,0.0,81,0.00,,---,0.00,VWS V12.08,2013-04-10 19:45:00,
2013-04-10 14:50:00,37.4,32.7,30.05,NNE,19,0.0,0.0,83,0.00,,---,0.00,VWS V12.08,2013-04-10 19:50:00,
2013-04-10 14:55:00,37.2,32.8,30.05,NNE,29,0.0,0.0,84,0.00,,---,0.00,VWS V12.08,2013-04-10 19:55:00,
2013-04-10 15:00:00,37.2,33.1,30.05,NE,38,0.0,0.0,85,0.00,,---,0.00,VWS V12.08,2013-04-10 20:00:00,
2013-04-10 15:05:00,37.4,33.9,30.05,North,9,0.0,0.0,87,0.00,,---,0.00,VWS V12.08,2013-04-10 20:05:00,
2013-04-10 15:10:00,37.2,34.0,30.05,NNE,20,0.0,0.0,88,0.00,,---,0.00,VWS V12.08,2013-04-10 20:10:00,
2013-04-10 15:15:00,37.2,34.3,30.05,North,0,0.0,0.0,89,0.00,,---,0.00,VWS V12.08,2013-04-10 20:15:00,
2013-04-10 15:20:00,37.2,34.6,30.05,NNE,15,0.0,0.0,90,0.00,,---,0.00,VWS V12.08,2013-04-10 20:20:00,
2013-04-10 15:25:00,37.0,34.4,30.02,NNE,33,0.0,0.0,90,0.00,,---,0.00,VWS V12.08,2013-04-10 20:25:00,
2013-04-10 15:30:00,37.0,34.4,30.02,NNE,30,0.0,0.0,90,0.00,,---,0.00,VWS V12.08,2013-04-10 20:30:00,
2013-04-10 15:35:00,37.4,34.7,30.02,North,353,0.0,0.0,90,0.00,,---,0.00,VWS V12.08,2013-04-10 20:35:00,
2013-04-10 15:40:00,37.4,35.0,30.02,NNE,31,0.0,0.0,91,0.00,,---,0.00,VWS V12.08,2013-04-10 20:40:00,
2013-04-10 15:45:00,37.4,34.7,30.02,NNE,13,0.0,0.0,90,0.00,,---,0.00,VWS V12.08,2013-04-10 20:45:00,
2013-04-10 15:50:00,37.4,34.7,30.02,NNE,29,0.0,0.0,90,0.00,,---,0.00,VWS V12.08,2013-04-10 20:50:00,
2013-04-10 15:56:00,37.6,34.9,30.02,NNE,14,0.0,0.0,90,0.00,,---,0.00,VWS V12.08,2013-04-10 20:56:00,
2013-04-10 16:01:00,37.8,35.1,30.02,NNE,19,0.0,0.0,90,0.00,,---,0.00,VWS V12.08,2013-04-10 21:01:00,
2013-04-10 16:06:00,37.8,34.8,30.02,NNE,14,0.0,0.0,89,0.00,,---,0.00,VWS V12.08,2013-04-10 21:06:00,
2013-04-10 16:11:00,37.8,34.5,29.99,NNE,28,0.0,0.0,88,0.00,,---,0.00,VWS V12.08,2013-04-10 21:11:00,
2013-04-10 16:16:00,37.9,34.4,29.99,NNE,19,0.0,0.0,87,0.00,,---,0.00,VWS V12.08,2013-04-10 21:16:00,
2013-04-10 16:21:00,38.1,34.3,29.99,NNE,27,0.0,0.0,86,0.00,,---,0.00,VWS V12.08,2013-04-10 21:21:00,
2013-04-10 16:26:00,38.1,33.7,29.99,NE,36,0.0,0.0,84,0.00,,---,0.00,VWS V12.08,2013-04-10 21:26:00,
2013-04-10 16:32:00,38.3,33.6,29.99,NNE,18,0.0,0.0,83,0.00,,---,0.00,VWS V12.08,2013-04-10 21:32:00,
2013-04-10 16:37:00,38.3,33.3,29.96,NNE,13,0.0,0.0,82,0.00,,---,0.00,VWS V12.08,2013-04-10 21:37:00,
2013-04-10 16:42:00,38.3,33.0,29.96,NNE,28,0.0,0.0,81,0.00,,---,0.00,VWS V12.08,2013-04-10 21:42:00,
2013-04-10 16:47:00,38.5,32.9,29.96,NNE,28,0.0,0.0,80,0.00,,---,0.00,VWS V12.08,2013-04-10 21:47:00,
2013-04-10 16:52:00,38.5,32.5,29.93,NNE,28,0.0,0.0,79,0.00,,---,0.00,VWS V12.08,2013-04-10 21:52:00,
2013-04-10 16:57:00,38.5,32.2,29.93,NE,53,0.0,0.0,78,0.00,,---,0.00,VWS V12.08,2013-04-10 21:57:00,
2013-04-10 17:02:00,38.7,32.7,29.93,NNE,14,0.0,0.0,79,0.00,,---,0.00,VWS V12.08,2013-04-10 22:02:00,
2013-04-10 17:07:00,38.7,32.1,29.93,NNE,25,0.0,0.0,77,0.00,,---,0.00,VWS V12.08,2013-04-10 22:07:00,
2013-04-10 17:12:00,38.7,32.1,29.93,NNE,27,0.0,0.0,77,0.00,,---,0.00,VWS V12.08,2013-04-10 22:12:00,
2013-04-10 17:17:00,38.8,32.3,29.93,NE,53,0.0,0.0,77,0.00,,---,0.00,VWS V12.08,2013-04-10 22:17:00,
2013-04-10 17:22:00,38.8,31.6,29.93,NE,49,0.0,0.0,75,0.00,,---,0.00,VWS V12.08,2013-04-10 22:22:00,
2013-04-10 17:27:00,38.8,31.3,29.93,NNE,29,0.0,0.0,74,0.00,,---,0.00,VWS V12.08,2013-04-10 22:27:00,
2013-04-10 17:32:00,38.8,31.3,29.93,NE,39,0.0,0.0,74,0.00,,---,0.00,VWS V12.08,2013-04-10 22:32:00,
2013-04-10 17:37:00,38.8,31.3,29.93,NE,41,0.0,0.0,74,0.00,,---,0.00,VWS V12.08,2013-04-10 22:37:00,
2013-04-10 17:42:00,38.8,30.9,29.93,NE,38,0.0,0.0,73,0.00,,---,0.00,VWS V12.08,2013-04-10 22:42:00,
2013-04-10 17:47:00,38.8,31.3,29.93,NNE,31,0.0,0.0,74,0.00,,---,0.00,VWS V12.08,2013-04-10 22:47:00,
2013-04-10 17:52:00,38.8,30.9,29.93,NE,35,0.0,0.0,73,0.00,,---,0.00,VWS V12.08,2013-04-10 22:52:00,
2013-04-10 17:57:00,38.8,30.6,29.93,NNE,29,0.0,0.0,72,0.00,,---,0.00,VWS V12.08,2013-04-10 22:57:00,
2013-04-10 18:02:00,38.8,29.9,29.93,NNE,30,0.0,0.0,70,0.00,,---,0.00,VWS V12.08,2013-04-10 23:02:00,
2013-04-10 18:07:00,38.8,29.9,29.96,NNE,22,0.0,0.0,70,0.00,,---,0.00,VWS V12.08,2013-04-10 23:07:00,
2013-04-10 18:12:00,38.8,30.3,29.96,ENE,59,0.0,0.0,71,0.00,,---,0.00,VWS V12.08,2013-04-10 23:12:00,
2013-04-10 18:17:00,38.8,30.6,29.96,NNE,28,0.0,0.0,72,0.00,,---,0.00,VWS V12.08,2013-04-10 23:17:00,
2013-04-10 18:22:00,38.8,31.3,29.93,NNE,26,0.0,0.0,74,0.00,,---,0.00,VWS V12.08,2013-04-10 23:22:00,
2013-04-10 18:27:00,38.7,31.4,29.93,NE,35,0.0,0.0,75,0.00,,---,0.00,VWS V12.08,2013-04-10 23:27:00,
2013-04-10 18:32:00,38.7,31.4,29.93,NNE,23,0.0,0.0,75,0.00,,---,0.00,VWS V12.08,2013-04-10 23:32:00,
2013-04-10 18:37:00,38.7,31.4,29.93,North,7,0.0,0.0,75,0.00,,---,0.00,VWS V12.08,2013-04-10 23:37:00,
2013-04-10 18:42:00,38.7,31.1,29.93,NE,40,0.0,0.0,74,0.00,,---,0.00,VWS V12.08,2013-04-10 23:42:00,
2013-04-10 18:48:00,38.7,30.1,29.93,NNE,19,0.0,0.0,71,0.00,,---,0.00,VWS V12.08,2013-04-10 23:48:00,
2013-04-10 18:53:00,38.7,29.7,29.96,NE,37,0.0,0.0,70,0.00,,---,0.00,VWS V12.08,2013-04-10 23:53:00,
2013-04-10 18:58:00,38.7,29.7,29.96,NNE,27,0.0,0.0,70,0.00,,---,0.00,VWS V12.08,2013-04-10 23:58:00,
2013-04-10 19:03:00,38.5,29.2,29.96,NE,50,0.0,0.0,69,0.00,,---,0.00,VWS V12.08,2013-04-11 00:03:00,
2013-04-10 19:08:00,38.3,27.2,29.93,North,7,0.0,0.0,64,0.00,,---,0.00,VWS V12.08,2013-04-11 00:08:00,
2013-04-10 19:13:00,38.3,26.8,29.93,NNE,24,0.0,0.0,63,0.00,,---,0.00,VWS V12.08,2013-04-11 00:13:00,
2013-04-10 19:18:00,38.1,26.6,29.93,NE,40,0.0,0.0,63,0.00,,---,0.00,VWS V12.08,2013-04-11 00:18:00,
2013-04-10 19:23:00,38.1,26.3,29.93,ENE,70,0.0,0.0,62,0.00,,---,0.00,VWS V12.08,2013-04-11 00:23:00,
2013-04-10 19:28:00,38.1,26.3,29.93,NE,39,0.0,0.0,62,0.00,,---,0.00,VWS V12.08,2013-04-11 00:28:00,
2013-04-10 19:33:00,38.1,26.6,29.93,NE,36,0.0,0.0,63,0.00,,---,0.00,VWS V12.08,2013-04-11 00:33:00,
2013-04-10 19:38:00,37.9,26.1,29.93,NNE,17,0.0,0.0,62,0.00,,---,0.00,VWS V12.08,2013-04-11 00:38:00,
2013-04-10 19:43:00,37.9,26.5,29.93,NNE,19,0.0,0.0,63,0.00,,---,0.00,VWS V12.08,2013-04-11 00:43:00,
2013-04-10 19:48:00,37.9,26.1,29.93,NNE,24,0.0,0.0,62,0.00,,---,0.00,VWS V12.08,2013-04-11 00:48:00,
2013-04-10 19:53:00,37.8,25.9,29.93,NE,37,0.0,0.0,62,0.00,,---,0.00,VWS V12.08,2013-04-11 00:53:00,
2013-04-10 19:58:00,37.6,25.0,29.93,NNE,32,0.0,0.0,60,0.00,,---,0.00,VWS V12.08,2013-04-11 00:58:00,
2013-04-10 20:03:00,37.6,25.4,29.93,NNE,27,0.0,0.0,61,0.00,,---,0.00,VWS V12.08,2013-04-11 01:03:00,
2013-04-10 20:08:00,37.4,24.8,29.96,NE,45,0.0,0.0,60,0.00,,---,0.00,VWS V12.08,2013-04-11 01:08:00,
2013-04-10 20:13:00,37.4,24.4,29.96,North,350,0.0,0.0,59,0.00,,---,0.00,VWS V12.08,2013-04-11 01:13:00,
2013-04-10 20:18:00,37.4,24.0,29.96,NE,39,0.0,0.0,58,0.00,,---,0.00,VWS V12.08,2013-04-11 01:18:00,
2013-04-10 20:23:00,37.4,24.0,29.96,NE,53,0.0,0.0,58,0.00,,---,0.00,VWS V12.08,2013-04-11 01:23:00,
2013-04-10 20:28:00,37.4,23.1,29.96,NNE,18,0.0,0.0,56,0.00,,---,0.00,VWS V12.08,2013-04-11 01:28:00,
2013-04-10 20:33:00,37.4,23.1,29.96,NNE,19,0.0,0.0,56,0.00,,---,0.00,VWS V12.08,2013-04-11 01:33:00,
2013-04-10 20:38:00,37.4,22.3,29.96,NNE,28,0.0,0.0,54,0.00,,---,0.00,VWS V12.08,2013-04-11 01:38:00,
2013-04-10 20:43:00,37.4,22.3,29.96,NNE,24,0.0,0.0,54,0.00,,---,0.00,VWS V12.08,2013-04-11 01:43:00,
2013-04-10 20:48:00,37.4,22.7,29.96,NNE,30,0.0,0.0,55,0.00,,---,0.00,VWS V12.08,2013-04-11 01:48:00,
2013-04-10 20:53:00,37.4,23.6,29.96,NE,37,0.0,0.0,57,0.00,,---,0.00,VWS V12.08,2013-04-11 01:53:00,
2013-04-10 20:58:00,37.2,23.8,29.96,NNE,21,0.0,0.0,58,0.00,,---,0.00,VWS V12.08,2013-04-11 01:58:00,
2013-04-10 21:03:00,37.2,24.2,29.96,NNE,20,0.0,0.0,59,0.00,,---,0.00,VWS V12.08,2013-04-11 02:03:00,
2013-04-10 21:08:00,37.2,24.6,29.96,NE,38,0.0,0.0,60,0.00,,---,0.00,VWS V12.08,2013-04-11 02:08:00,
2013-04-10 21:13:00,37.2,25.0,29.96,NE,46,0.0,0.0,61,0.00,,---,0.00,VWS V12.08,2013-04-11 02:13:00,
2013-04-10 21:18:00,37.2,25.4,29.96,NE,46,0.0,0.0,62,0.00,,---,0.00,VWS V12.08,2013-04-11 02:18:00,
2013-04-10 21:23:00,37.4,25.2,29.99,NNE,29,0.0,0.0,61,0.00,,---,0.00,VWS V12.08,2013-04-11 02:23:00,
2013-04-10 21:28:00,37.4,25.2,29.99,NE,34,0.0,0.0,61,0.00,,---,0.00,VWS V12.08,2013-04-11 02:28:00,
2013-04-10 21:33:00,37.4,25.6,29.99,NNE,24,0.0,0.0,62,0.00,,---,0.00,VWS V12.08,2013-04-11 02:33:00,
2013-04-10 21:38:00,37.4,26.7,29.96,NE,47,0.0,0.0,65,0.00,,---,0.00,VWS V12.08,2013-04-11 02:38:00,
2013-04-10 21:43:00,37.4,27.8,29.96,NE,41,0.0,0.0,68,0.00,,---,0.00,VWS V12.08,2013-04-11 02:43:00,
2013-04-10 21:48:00,37.4,28.9,29.96,NNE,27,0.0,0.0,71,0.00,,---,0.00,VWS V12.08,2013-04-11 02:48:00,
2013-04-10 21:53:00,37.4,29.9,29.93,NNE,32,0.0,0.0,74,0.00,,---,0.00,VWS V12.08,2013-04-11 02:53:00,
2013-04-10 21:58:00,37.4,30.2,29.93,NNE,15,0.0,0.0,75,0.00,,---,0.00,VWS V12.08,2013-04-11 02:58:00,
2013-04-10 22:03:00,37.4,30.5,29.93,NNE,19,0.0,0.0,76,0.00,,---,0.00,VWS V12.08,2013-04-11 03:03:00,
2013-04-10 22:08:00,37.4,30.9,29.93,NNE,24,0.0,0.0,77,0.00,,---,0.00,VWS V12.08,2013-04-11 03:08:00,
2013-04-10 22:13:00,37.4,31.2,29.93,NNE,26,0.0,0.0,78,0.00,,---,0.00,VWS V12.08,2013-04-11 03:13:00,
2013-04-10 22:18:00,37.4,31.2,29.93,NNE,28,0.0,0.0,78,0.00,,---,0.00,VWS V12.08,2013-04-11 03:18:00,
2013-04-10 22:23:00,37.4,31.5,29.93,NNE,19,0.0,0.0,79,0.00,,---,0.00,VWS V12.08,2013-04-11 03:23:00,
2013-04-10 22:28:00,37.4,31.2,29.93,NE,43,0.0,0.0,78,0.00,,---,0.00,VWS V12.08,2013-04-11 03:28:00,
2013-04-10 22:33:00,37.6,31.4,29.93,NNE,27,0.0,0.0,78,0.00,,---,0.00,VWS V12.08,2013-04-11 03:33:00,
2013-04-10 22:38:00,37.6,30.4,29.93,NNE,24,0.0,0.0,75,0.00,,---,0.00,VWS V12.08,2013-04-11 03:38:00,
2013-04-10 22:43:00,37.8,29.9,29.93,NNE,21,0.0,0.0,73,0.00,,---,0.00,VWS V12.08,2013-04-11 03:43:00,
2013-04-10 22:48:00,37.8,28.9,29.93,NNE,26,0.0,0.0,70,0.00,,---,0.00,VWS V12.08,2013-04-11 03:48:00,
2013-04-10 22:53:00,37.9,28.3,29.93,NNE,26,0.0,0.0,68,0.00,,---,0.00,VWS V12.08,2013-04-11 03:53:00,
2013-04-10 22:58:00,37.9,27.6,29.93,NNE,25,0.0,0.0,66,0.00,,---,0.00,VWS V12.08,2013-04-11 03:58:00,
2013-04-10 23:00:00,37.9,27.2,29.93,NE,41,0.0,0.0,65,0.00,,---,0.00,VWS V12.08,2013-04-11 04:00:00,
2013-04-10 23:05:00,37.9,27.6,29.93,NNE,33,0.0,0.0,66,0.00,,---,0.00,VWS V12.08,2013-04-11 04:05:00,
2013-04-10 23:10:00,37.9,28.3,29.93,NE,35,0.0,0.0,68,0.00,,---,0.00,VWS V12.08,2013-04-11 04:10:00,
2013-04-10 23:15:00,37.9,29.0,29.93,NNE,29,0.0,0.0,70,0.00,,---,0.00,VWS V12.08,2013-04-11 04:15:00,
2013-04-10 23:20:00,37.8,29.6,29.93,NE,48,0.0,0.0,72,0.00,,---,0.00,VWS V12.08,2013-04-11 04:20:00,
2013-04-10 23:25:00,37.8,30.2,29.93,NE,43,0.0,0.0,74,0.00,,---,0.00,VWS V12.08,2013-04-11 04:25:00,
2013-04-10 23:30:00,37.8,30.6,29.93,NNE,29,0.0,0.0,75,0.00,,---,0.00,VWS V12.08,2013-04-11 04:30:00,
2013-04-10 23:35:00,37.6,30.4,29.93,NE,44,0.0,0.0,75,0.00,,---,0.00,VWS V12.08,2013-04-11 04:35:00,
2013-04-10 23:40:00,37.6,30.7,29.93,NE,46,0.0,0.0,76,0.00,,---,0.00,VWS V12.08,2013-04-11 04:40:00,
2013-04-10 23:45:00,37.6,31.0,29.93,NNE,27,0.0,0.0,77,0.00,,---,0.00,VWS V12.08,2013-04-11 04:45:00,
2013-04-10 23:50:00,37.6,31.4,29.93,NE,44,0.0,0.0,78,0.00,,---,0.00,VWS V12.08,2013-04-11 04:50:00,
2013-04-10 23:55:00,37.6,31.4,29.93,NE,35,0.0,0.0,78,0.00,,---,0.00,VWS V12.08,2013-04-11 04:55:00,